sensor_id;sensor_type;location;lat;lon;timestamp;pressure;altitude;pressure_sealevel;temperature;humidity
59435;BME280;45241;49.768;8.636;2023-07-13T00:01:24;100135.25;;;22.97;61.22
59435;BME280;45241;49.768;8.636;2023-07-13T00:03:50;100134.72;;;22.90;62.42
59435;BME280;45241;49.768;8.636;2023-07-13T00:06:15;100134.47;;;22.76;60.66
59435;BME280;45241;49.768;8.636;2023-07-13T00:08:41;100131.72;;;22.81;62.61
59435;BME280;45241;49.768;8.636;2023-07-13T00:11:06;100133.09;;;22.74;61.46
59435;BME280;45241;49.768;8.636;2023-07-13T00:13:32;100137.75;;;22.63;60.52
59435;BME280;45241;49.768;8.636;2023-07-13T00:15:58;100134.44;;;22.71;63.29
59435;BME280;45241;49.768;8.636;2023-07-13T00:18:23;100134.19;;;22.78;61.68
59435;BME280;45241;49.768;8.636;2023-07-13T00:20:49;100136.09;;;22.67;58.12
59435;BME280;45241;49.768;8.636;2023-07-13T00:23:15;100139.91;;;22.56;64.76
59435;BME280;45241;49.768;8.636;2023-07-13T00:25:40;100134.16;;;22.57;63.22
59435;BME280;45241;49.768;8.636;2023-07-13T00:28:06;100127.09;;;22.62;62.41
59435;BME280;45241;49.768;8.636;2023-07-13T00:30:31;100139.06;;;22.45;62.73
59435;BME280;45241;49.768;8.636;2023-07-13T00:32:56;100143.19;;;22.38;61.52
59435;BME280;45241;49.768;8.636;2023-07-13T00:35:22;100142.63;;;22.41;63.27
59435;BME280;45241;49.768;8.636;2023-07-13T00:37:47;100135.97;;;22.06;58.66
59435;BME280;45241;49.768;8.636;2023-07-13T00:40:17;100137.44;;;22.39;59.98
59435;BME280;45241;49.768;8.636;2023-07-13T00:42:42;100136.84;;;22.32;60.74
59435;BME280;45241;49.768;8.636;2023-07-13T00:47:43;100143.06;;;21.97;63.12
59435;BME280;45241;49.768;8.636;2023-07-13T00:50:12;100147.75;;;22.17;62.80
59435;BME280;45241;49.768;8.636;2023-07-13T00:52:43;100143.91;;;22.18;63.54
59435;BME280;45241;49.768;8.636;2023-07-13T00:55:10;100140.91;;;22.14;64.41
59435;BME280;45241;49.768;8.636;2023-07-13T00:57:37;100143.34;;;22.06;64.55
59435;BME280;45241;49.768;8.636;2023-07-13T01:00:04;100145.00;;;22.07;64.62
59435;BME280;45241;49.768;8.636;2023-07-13T01:02:32;100148.75;;;21.90;65.75
59435;BME280;45241;49.768;8.636;2023-07-13T01:04:58;100150.63;;;21.75;66.86
59435;BME280;45241;49.768;8.636;2023-07-13T01:07:23;100152.81;;;21.78;65.32
59435;BME280;45241;49.768;8.636;2023-07-13T01:09:49;100148.75;;;21.85;65.79
59435;BME280;45241;49.768;8.636;2023-07-13T01:12:14;100146.47;;;21.57;63.87
59435;BME280;45241;49.768;8.636;2023-07-13T01:14:39;100147.78;;;21.54;63.21
59435;BME280;45241;49.768;8.636;2023-07-13T01:17:08;100139.13;;;20.78;64.31
59435;BME280;45241;49.768;8.636;2023-07-13T01:19:39;100148.13;;;21.21;64.51
59435;BME280;45241;49.768;8.636;2023-07-13T01:22:10;100145.75;;;21.29;65.82
59435;BME280;45241;49.768;8.636;2023-07-13T01:24:37;100145.31;;;21.53;64.75
59435;BME280;45241;49.768;8.636;2023-07-13T01:27:04;100139.59;;;21.54;66.72
59435;BME280;45241;49.768;8.636;2023-07-13T01:29:33;100147.28;;;21.62;68.29
59435;BME280;45241;49.768;8.636;2023-07-13T01:31:58;100139.53;;;21.44;66.98
59435;BME280;45241;49.768;8.636;2023-07-13T01:34:25;100136.88;;;21.07;66.61
59435;BME280;45241;49.768;8.636;2023-07-13T01:36:50;100143.03;;;20.92;67.96
59435;BME280;45241;49.768;8.636;2023-07-13T01:39:20;100143.03;;;20.92;67.65
59435;BME280;45241;49.768;8.636;2023-07-13T01:41:46;100142.50;;;20.90;67.21
59435;BME280;45241;49.768;8.636;2023-07-13T01:44:11;100150.75;;;20.41;70.60
59435;BME280;45241;49.768;8.636;2023-07-13T01:46:36;100147.78;;;20.75;69.21
59435;BME280;45241;49.768;8.636;2023-07-13T01:49:01;100152.50;;;20.84;69.28
59435;BME280;45241;49.768;8.636;2023-07-13T01:51:27;100146.84;;;20.91;67.81
59435;BME280;45241;49.768;8.636;2023-07-13T01:53:52;100153.19;;;20.65;70.02
59435;BME280;45241;49.768;8.636;2023-07-13T01:56:18;100151.59;;;20.74;69.40
59435;BME280;45241;49.768;8.636;2023-07-13T01:58:44;100153.38;;;20.90;70.01
59435;BME280;45241;49.768;8.636;2023-07-13T02:01:10;100155.59;;;20.93;70.08
59435;BME280;45241;49.768;8.636;2023-07-13T02:03:35;100163.81;;;20.66;70.02
59435;BME280;45241;49.768;8.636;2023-07-13T02:06:00;100161.19;;;20.76;69.71
59435;BME280;45241;49.768;8.636;2023-07-13T02:08:26;100170.34;;;20.65;71.98
59435;BME280;45241;49.768;8.636;2023-07-13T02:10:51;100180.13;;;20.12;71.07
59435;BME280;45241;49.768;8.636;2023-07-13T02:13:16;100175.00;;;19.94;73.38
59435;BME280;45241;49.768;8.636;2023-07-13T02:15:41;100172.94;;;20.01;74.71
59435;BME280;45241;49.768;8.636;2023-07-13T02:18:07;100180.13;;;20.12;76.05
59435;BME280;45241;49.768;8.636;2023-07-13T02:20:32;100183.88;;;19.46;77.89
59435;BME280;45241;49.768;8.636;2023-07-13T02:22:58;100180.88;;;19.64;78.33
59435;BME280;45241;49.768;8.636;2023-07-13T02:25:23;100186.78;;;20.00;75.82
59435;BME280;45241;49.768;8.636;2023-07-13T02:27:50;100192.78;;;20.02;76.04
59435;BME280;45241;49.768;8.636;2023-07-13T02:30:15;100198.50;;;20.00;76.65
59435;BME280;45241;49.768;8.636;2023-07-13T02:32:41;100192.31;;;20.10;75.44
59435;BME280;45241;49.768;8.636;2023-07-13T02:35:06;100193.22;;;20.15;75.39
59435;BME280;45241;49.768;8.636;2023-07-13T02:37:31;100194.66;;;20.23;72.00
59435;BME280;45241;49.768;8.636;2023-07-13T02:39:57;100191.75;;;20.30;71.44
59435;BME280;45241;49.768;8.636;2023-07-13T02:42:22;100196.59;;;20.01;73.75
59435;BME280;45241;49.768;8.636;2023-07-13T02:44:47;100193.56;;;19.75;77.20
59435;BME280;45241;49.768;8.636;2023-07-13T02:47:14;100198.75;;;19.99;72.25
59435;BME280;45241;49.768;8.636;2023-07-13T02:49:40;100195.47;;;20.23;73.16
59435;BME280;45241;49.768;8.636;2023-07-13T02:52:05;100205.06;;;19.82;75.88
59435;BME280;45241;49.768;8.636;2023-07-13T02:54:31;100191.75;;;20.08;72.53
59435;BME280;45241;49.768;8.636;2023-07-13T02:56:56;100188.75;;;20.04;74.22
59435;BME280;45241;49.768;8.636;2023-07-13T02:59:21;100197.72;;;20.05;74.14
59435;BME280;45241;49.768;8.636;2023-07-13T03:01:47;100199.88;;;20.03;73.84
59435;BME280;45241;49.768;8.636;2023-07-13T03:04:12;100195.91;;;19.88;74.77
59435;BME280;45241;49.768;8.636;2023-07-13T03:06:37;100195.91;;;19.88;75.17
59435;BME280;45241;49.768;8.636;2023-07-13T03:09:02;100190.19;;;19.90;75.35
59435;BME280;45241;49.768;8.636;2023-07-13T03:11:29;100190.63;;;19.43;75.28
59435;BME280;45241;49.768;8.636;2023-07-13T03:13:55;100197.34;;;19.74;75.15
59435;BME280;45241;49.768;8.636;2023-07-13T03:16:20;100191.81;;;19.69;75.47
59435;BME280;45241;49.768;8.636;2023-07-13T03:18:46;100193.56;;;19.58;75.25
59435;BME280;45241;49.768;8.636;2023-07-13T03:21:12;100197.91;;;19.37;76.41
59435;BME280;45241;49.768;8.636;2023-07-13T03:23:38;100192.38;;;19.32;75.00
59435;BME280;45241;49.768;8.636;2023-07-13T03:26:18;100195.91;;;19.50;74.55
59435;BME280;45241;49.768;8.636;2023-07-13T03:28:44;100197.53;;;19.51;73.70
59435;BME280;45241;49.768;8.636;2023-07-13T03:31:18;100205.91;;;19.66;73.77
59435;BME280;45241;49.768;8.636;2023-07-13T03:33:44;100206.78;;;19.50;72.79
59435;BME280;45241;49.768;8.636;2023-07-13T03:36:15;100204.38;;;19.53;72.31
59435;BME280;45241;49.768;8.636;2023-07-13T03:38:44;100211.25;;;19.39;72.67
59435;BME280;45241;49.768;8.636;2023-07-13T03:41:11;100214.53;;;19.41;74.61
59435;BME280;45241;49.768;8.636;2023-07-13T03:43:36;100216.78;;;19.27;73.73
59435;BME280;45241;49.768;8.636;2023-07-13T03:46:02;100212.56;;;19.20;75.05
59435;BME280;45241;49.768;8.636;2023-07-13T03:48:27;100216.28;;;19.30;75.57
59435;BME280;45241;49.768;8.636;2023-07-13T03:50:52;100216.19;;;19.25;75.94
59435;BME280;45241;49.768;8.636;2023-07-13T03:53:17;100211.28;;;19.22;76.18
59435;BME280;45241;49.768;8.636;2023-07-13T03:55:44;100212.69;;;18.63;78.49
59435;BME280;45241;49.768;8.636;2023-07-13T03:58:36;100212.84;;;18.85;77.57
59435;BME280;45241;49.768;8.636;2023-07-13T04:01:04;100220.66;;;18.98;76.01
59435;BME280;45241;49.768;8.636;2023-07-13T04:03:31;100216.19;;;19.25;76.19
59435;BME280;45241;49.768;8.636;2023-07-13T04:05:59;100217.78;;;19.21;73.80
59435;BME280;45241;49.768;8.636;2023-07-13T04:08:30;100210.19;;;19.23;73.61
59435;BME280;45241;49.768;8.636;2023-07-13T04:10:56;100223.06;;;18.94;76.01
59435;BME280;45241;49.768;8.636;2023-07-13T04:13:21;100212.13;;;18.77;76.78
59435;BME280;45241;49.768;8.636;2023-07-13T04:15:47;100216.06;;;18.98;75.61
59435;BME280;45241;49.768;8.636;2023-07-13T04:18:12;100213.00;;;19.12;74.56
59435;BME280;45241;49.768;8.636;2023-07-13T04:20:37;100224.34;;;19.25;74.88
59435;BME280;45241;49.768;8.636;2023-07-13T04:23:03;100227.56;;;19.22;75.05
59435;BME280;45241;49.768;8.636;2023-07-13T04:25:28;100230.59;;;18.47;77.73
59435;BME280;45241;49.768;8.636;2023-07-13T04:27:54;100226.19;;;18.74;76.18
59435;BME280;45241;49.768;8.636;2023-07-13T04:30:20;100237.56;;;18.14;79.76
59435;BME280;45241;49.768;8.636;2023-07-13T04:32:45;100239.34;;;18.66;76.48
59435;BME280;45241;49.768;8.636;2023-07-13T04:35:10;100242.06;;;19.11;75.33
59435;BME280;45241;49.768;8.636;2023-07-13T04:37:36;100243.31;;;19.20;75.03
59435;BME280;45241;49.768;8.636;2023-07-13T04:40:02;100244.53;;;18.67;77.48
59435;BME280;45241;49.768;8.636;2023-07-13T04:42:28;100243.13;;;19.10;76.14
59435;BME280;45241;49.768;8.636;2023-07-13T04:44:54;100253.09;;;19.38;76.26
59435;BME280;45241;49.768;8.636;2023-07-13T04:47:19;100254.41;;;19.19;77.41
59435;BME280;45241;49.768;8.636;2023-07-13T04:49:45;100258.38;;;19.11;76.64
59435;BME280;45241;49.768;8.636;2023-07-13T04:52:11;100262.06;;;19.38;75.87
59435;BME280;45241;49.768;8.636;2023-07-13T04:54:37;100261.31;;;19.43;75.23
59435;BME280;45241;49.768;8.636;2023-07-13T04:57:03;100260.22;;;19.61;76.12
59435;BME280;45241;49.768;8.636;2023-07-13T04:59:31;100261.59;;;19.80;75.41
59435;BME280;45241;49.768;8.636;2023-07-13T05:01:57;100258.91;;;19.80;74.74
59435;BME280;45241;49.768;8.636;2023-07-13T05:04:22;100261.25;;;19.93;74.35
59435;BME280;45241;49.768;8.636;2023-07-13T05:06:47;100269.13;;;20.12;73.99
59435;BME280;45241;49.768;8.636;2023-07-13T05:09:13;100267.53;;;20.16;73.53
59435;BME280;45241;49.768;8.636;2023-07-13T05:11:38;100261.94;;;20.28;74.01
59435;BME280;45241;49.768;8.636;2023-07-13T05:14:03;100259.09;;;20.39;74.74
59435;BME280;45241;49.768;8.636;2023-07-13T05:16:29;100266.09;;;20.35;74.97
59435;BME280;45241;49.768;8.636;2023-07-13T05:18:54;100260.75;;;20.40;72.66
59435;BME280;45241;49.768;8.636;2023-07-13T05:21:19;100265.44;;;20.50;73.17
59435;BME280;45241;49.768;8.636;2023-07-13T05:23:45;100265.25;;;20.57;71.44
59435;BME280;45241;49.768;8.636;2023-07-13T05:26:10;100266.00;;;20.74;72.64
59435;BME280;45241;49.768;8.636;2023-07-13T05:28:36;100267.09;;;20.73;70.67
59435;BME280;45241;49.768;8.636;2023-07-13T05:31:02;100263.91;;;20.81;70.56
59435;BME280;45241;49.768;8.636;2023-07-13T05:33:28;100261.28;;;20.91;70.18
59435;BME280;45241;49.768;8.636;2023-07-13T05:35:53;100260.25;;;20.97;69.57
59435;BME280;45241;49.768;8.636;2023-07-13T05:38:19;100267.44;;;21.08;68.43
59435;BME280;45241;49.768;8.636;2023-07-13T05:40:45;100263.75;;;20.93;67.10
59435;BME280;45241;49.768;8.636;2023-07-13T05:43:11;100266.31;;;21.04;67.67
59435;BME280;45241;49.768;8.636;2023-07-13T05:45:37;100265.97;;;20.96;63.69
59435;BME280;45241;49.768;8.636;2023-07-13T05:48:02;100260.53;;;21.01;64.62
59435;BME280;45241;49.768;8.636;2023-07-13T05:50:28;100265.16;;;21.00;64.60
59435;BME280;45241;49.768;8.636;2023-07-13T05:52:53;100267.16;;;20.78;63.13
59435;BME280;45241;49.768;8.636;2023-07-13T05:55:20;100272.50;;;20.95;62.39
59435;BME280;45241;49.768;8.636;2023-07-13T05:57:45;100279.44;;;20.80;62.99
59435;BME280;45241;49.768;8.636;2023-07-13T06:00:11;100281.91;;;20.82;63.24
59435;BME280;45241;49.768;8.636;2023-07-13T06:02:36;100276.72;;;21.12;65.68
59435;BME280;45241;49.768;8.636;2023-07-13T06:05:02;100277.25;;;21.09;65.36
59435;BME280;45241;49.768;8.636;2023-07-13T06:07:27;100289.28;;;21.13;65.68
59435;BME280;45241;49.768;8.636;2023-07-13T06:09:52;100285.72;;;21.13;62.19
59435;BME280;45241;49.768;8.636;2023-07-13T06:12:18;100292.38;;;21.27;65.73
59435;BME280;45241;49.768;8.636;2023-07-13T06:14:43;100291.78;;;21.20;64.24
59435;BME280;45241;49.768;8.636;2023-07-13T06:17:08;100287.91;;;20.84;61.53
59435;BME280;45241;49.768;8.636;2023-07-13T06:19:34;100292.41;;;21.00;61.38
59435;BME280;45241;49.768;8.636;2023-07-13T06:21:59;100301.06;;;21.19;61.66
59435;BME280;45241;49.768;8.636;2023-07-13T06:24:25;100298.31;;;21.19;62.40
59435;BME280;45241;49.768;8.636;2023-07-13T06:26:50;100303.28;;;21.27;63.36
59435;BME280;45241;49.768;8.636;2023-07-13T06:29:16;100302.91;;;21.13;60.23
59435;BME280;45241;49.768;8.636;2023-07-13T06:31:41;100302.22;;;21.28;59.87
59435;BME280;45241;49.768;8.636;2023-07-13T06:34:07;100302.72;;;21.25;59.07
59435;BME280;45241;49.768;8.636;2023-07-13T06:36:32;100302.53;;;21.32;59.21
59435;BME280;45241;49.768;8.636;2023-07-13T06:38:57;100297.72;;;21.44;58.82
59435;BME280;45241;49.768;8.636;2023-07-13T06:41:23;100305.25;;;21.32;58.24
59435;BME280;45241;49.768;8.636;2023-07-13T06:43:51;100308.44;;;21.24;59.41
59435;BME280;45241;49.768;8.636;2023-07-13T06:46:16;100315.97;;;21.11;60.11
59435;BME280;45241;49.768;8.636;2023-07-13T06:48:41;100317.38;;;21.46;60.95
59435;BME280;45241;49.768;8.636;2023-07-13T06:51:07;100318.63;;;21.65;63.21
59435;BME280;45241;49.768;8.636;2023-07-13T06:53:33;100328.72;;;21.33;59.96
59435;BME280;45241;49.768;8.636;2023-07-13T06:55:58;100326.44;;;21.25;60.61
59435;BME280;45241;49.768;8.636;2023-07-13T06:58:24;100325.28;;;21.48;60.37
59435;BME280;45241;49.768;8.636;2023-07-13T07:00:52;100325.78;;;21.77;60.52
59435;BME280;45241;49.768;8.636;2023-07-13T07:03:17;100323.06;;;21.77;61.00
59435;BME280;45241;49.768;8.636;2023-07-13T07:05:43;100315.97;;;21.76;60.73
59435;BME280;45241;49.768;8.636;2023-07-13T07:08:08;100325.53;;;21.78;62.45
59435;BME280;45241;49.768;8.636;2023-07-13T07:10:34;100335.06;;;21.76;61.39
59435;BME280;45241;49.768;8.636;2023-07-13T07:13:00;100337.94;;;21.59;60.17
59435;BME280;45241;49.768;8.636;2023-07-13T07:15:26;100332.97;;;21.93;62.17
59435;BME280;45241;49.768;8.636;2023-07-13T07:17:52;100337.41;;;21.99;61.58
59435;BME280;45241;49.768;8.636;2023-07-13T07:20:17;100332.81;;;22.10;60.80
59435;BME280;45241;49.768;8.636;2023-07-13T07:22:43;100334.69;;;22.04;60.05
59435;BME280;45241;49.768;8.636;2023-07-13T07:25:08;100337.75;;;22.13;60.50
59435;BME280;45241;49.768;8.636;2023-07-13T07:27:33;100344.00;;;22.08;59.64
59435;BME280;45241;49.768;8.636;2023-07-13T07:29:59;100337.38;;;21.94;59.75
59435;BME280;45241;49.768;8.636;2023-07-13T07:32:24;100335.94;;;22.34;56.76
59435;BME280;45241;49.768;8.636;2023-07-13T07:34:49;100337.63;;;22.40;57.50
59435;BME280;45241;49.768;8.636;2023-07-13T07:37:15;100335.72;;;22.35;55.96
59435;BME280;45241;49.768;8.636;2023-07-13T07:39:40;100337.56;;;22.29;55.19
59435;BME280;45241;49.768;8.636;2023-07-13T07:42:06;100339.81;;;22.38;55.57
59435;BME280;45241;49.768;8.636;2023-07-13T07:44:32;100338.81;;;22.64;56.06
59435;BME280;45241;49.768;8.636;2023-07-13T07:46:57;100348.34;;;22.46;54.53
59435;BME280;45241;49.768;8.636;2023-07-13T07:49:22;100345.84;;;22.45;54.88
59435;BME280;45241;49.768;8.636;2023-07-13T07:51:48;100343.47;;;22.64;55.65
59435;BME280;45241;49.768;8.636;2023-07-13T07:54:13;100339.88;;;22.53;55.13
59435;BME280;45241;49.768;8.636;2023-07-13T07:56:40;100341.47;;;22.44;55.54
59435;BME280;45241;49.768;8.636;2023-07-13T07:59:05;100344.56;;;22.63;55.49
59435;BME280;45241;49.768;8.636;2023-07-13T08:01:31;100350.03;;;22.68;54.99
59435;BME280;45241;49.768;8.636;2023-07-13T08:03:56;100345.84;;;22.45;54.12
59435;BME280;45241;49.768;8.636;2023-07-13T08:06:21;100345.19;;;22.27;54.61
59435;BME280;45241;49.768;8.636;2023-07-13T08:08:47;100348.88;;;22.48;55.18
59435;BME280;45241;49.768;8.636;2023-07-13T08:11:12;100352.69;;;22.47;55.77
59435;BME280;45241;49.768;8.636;2023-07-13T08:13:38;100351.03;;;22.41;57.90
59435;BME280;45241;49.768;8.636;2023-07-13T08:16:07;100344.56;;;22.68;55.84
59435;BME280;45241;49.768;8.636;2023-07-13T08:18:32;100347.00;;;22.59;54.43
59435;BME280;45241;49.768;8.636;2023-07-13T08:20:57;100346.53;;;22.93;55.60
59435;BME280;45241;49.768;8.636;2023-07-13T08:23:24;100346.00;;;22.91;55.10
59435;BME280;45241;49.768;8.636;2023-07-13T08:25:54;100349.84;;;23.10;53.74
59435;BME280;45241;49.768;8.636;2023-07-13T08:28:20;100351.56;;;23.31;55.13
59435;BME280;45241;49.768;8.636;2023-07-13T08:30:45;100344.75;;;23.39;54.83
59435;BME280;45241;49.768;8.636;2023-07-13T08:33:17;100340.06;;;23.60;55.31
59435;BME280;45241;49.768;8.636;2023-07-13T08:35:45;100337.06;;;23.36;53.87
59435;BME280;45241;49.768;8.636;2023-07-13T08:38:11;100339.53;;;23.42;54.32
59435;BME280;45241;49.768;8.636;2023-07-13T08:40:36;100346.09;;;23.57;53.06
59435;BME280;45241;49.768;8.636;2023-07-13T08:43:01;100341.19;;;23.64;52.34
59435;BME280;45241;49.768;8.636;2023-07-13T08:45:30;100331.84;;;23.60;52.44
59435;BME280;45241;49.768;8.636;2023-07-13T08:48:04;100335.16;;;23.46;51.79
59435;BME280;45241;49.768;8.636;2023-07-13T08:50:35;100318.47;;;23.63;52.62
59435;BME280;45241;49.768;8.636;2023-07-13T08:53:07;100326.28;;;24.21;53.08
59435;BME280;45241;49.768;8.636;2023-07-13T08:55:36;100332.88;;;24.15;51.20
59435;BME280;45241;49.768;8.636;2023-07-13T08:58:15;100335.03;;;24.23;51.19
59435;BME280;45241;49.768;8.636;2023-07-13T09:04:14;100330.09;;;24.25;51.32
59435;BME280;45241;49.768;8.636;2023-07-13T09:10:17;100330.09;;;24.30;50.43
59435;BME280;45241;49.768;8.636;2023-07-13T09:12:55;100320.59;;;24.07;50.81
59435;BME280;45241;49.768;8.636;2023-07-13T09:15:28;100329.38;;;23.84;50.63
59435;BME280;45241;49.768;8.636;2023-07-13T09:17:59;100318.63;;;24.18;51.28
59435;BME280;45241;49.768;8.636;2023-07-13T09:20:34;100314.56;;;24.75;50.76
59435;BME280;45241;49.768;8.636;2023-07-13T09:23:03;100318.94;;;24.81;50.20
59435;BME280;45241;49.768;8.636;2023-07-13T09:25:32;100317.06;;;24.61;49.62
59435;BME280;45241;49.768;8.636;2023-07-13T09:28:15;100312.94;;;24.74;49.93
59435;BME280;45241;49.768;8.636;2023-07-13T09:30:56;100315.66;;;24.74;49.89
59435;BME280;45241;49.768;8.636;2023-07-13T09:33:23;100318.75;;;24.57;49.44
59435;BME280;45241;49.768;8.636;2023-07-13T09:35:49;100310.19;;;24.74;49.35
59435;BME280;45241;49.768;8.636;2023-07-13T09:38:17;100318.78;;;25.01;47.95
59435;BME280;45241;49.768;8.636;2023-07-13T09:40:55;100310.06;;;24.94;47.33
59435;BME280;45241;49.768;8.636;2023-07-13T09:43:21;100311.69;;;25.34;47.29
59435;BME280;45241;49.768;8.636;2023-07-13T09:45:47;100309.22;;;25.33;47.18
59435;BME280;45241;49.768;8.636;2023-07-13T09:48:14;100315.41;;;25.14;47.28
59435;BME280;45241;49.768;8.636;2023-07-13T09:50:41;100306.50;;;25.33;48.75
59435;BME280;45241;49.768;8.636;2023-07-13T09:53:15;100300.75;;;25.29;47.35
59435;BME280;45241;49.768;8.636;2023-07-13T09:55:43;100314.56;;;25.14;47.53
59435;BME280;45241;49.768;8.636;2023-07-13T10:00:36;100320.75;;;24.90;46.45
59435;BME280;45241;49.768;8.636;2023-07-13T10:03:16;100314.25;;;24.81;47.13
59435;BME280;45241;49.768;8.636;2023-07-13T10:05:44;100320.13;;;25.09;46.69
59435;BME280;45241;49.768;8.636;2023-07-13T10:08:29;100318.34;;;25.23;45.73
59435;BME280;45241;49.768;8.636;2023-07-13T10:11:17;100310.66;;;25.25;45.01
59435;BME280;45241;49.768;8.636;2023-07-13T10:13:50;100309.66;;;25.50;44.64
59435;BME280;45241;49.768;8.636;2023-07-13T10:16:15;100302.38;;;26.17;45.60
59435;BME280;45241;49.768;8.636;2023-07-13T10:18:46;100307.19;;;25.77;43.99
59435;BME280;45241;49.768;8.636;2023-07-13T10:21:19;100303.81;;;25.22;43.71
59435;BME280;45241;49.768;8.636;2023-07-13T10:23:50;100310.97;;;25.18;43.63
59435;BME280;45241;49.768;8.636;2023-07-13T10:26:21;100312.19;;;25.07;43.79
59435;BME280;45241;49.768;8.636;2023-07-13T10:28:52;100298.53;;;24.97;44.34
59435;BME280;45241;49.768;8.636;2023-07-13T10:31:21;100317.78;;;24.87;43.84
59435;BME280;45241;49.768;8.636;2023-07-13T10:33:46;100306.41;;;24.59;44.30
59435;BME280;45241;49.768;8.636;2023-07-13T10:38:38;100313.97;;;24.83;45.38
59435;BME280;45241;49.768;8.636;2023-07-13T10:41:06;100312.19;;;25.02;46.27
59435;BME280;45241;49.768;8.636;2023-07-13T10:43:44;100320.47;;;24.92;46.04
59435;BME280;45241;49.768;8.636;2023-07-13T10:46:13;100322.75;;;24.80;46.03
59435;BME280;45241;49.768;8.636;2023-07-13T10:48:40;100323.75;;;24.99;46.63
59435;BME280;45241;49.768;8.636;2023-07-13T10:51:08;100312.84;;;25.62;46.04
59435;BME280;45241;49.768;8.636;2023-07-13T10:53:37;100313.00;;;25.42;44.73
59435;BME280;45241;49.768;8.636;2023-07-13T10:58:42;100297.38;;;25.95;45.29
59435;BME280;45241;49.768;8.636;2023-07-13T11:03:46;100304.66;;;25.18;44.09
59435;BME280;45241;49.768;8.636;2023-07-13T11:18:44;100295.19;;;26.21;42.71
59435;BME280;45241;49.768;8.636;2023-07-13T11:21:22;100301.81;;;26.63;42.94
59435;BME280;45241;49.768;8.636;2023-07-13T11:23:53;100299.13;;;26.58;43.62
59435;BME280;45241;49.768;8.636;2023-07-13T11:29:53;100291.31;;;26.22;43.13
59435;BME280;45241;49.768;8.636;2023-07-13T11:31:56;100296.34;;;26.39;43.72
59435;BME280;45241;49.768;8.636;2023-07-13T11:34:34;100286.16;;;25.92;43.57
59435;BME280;45241;49.768;8.636;2023-07-13T11:37:00;100302.47;;;26.12;43.53
59435;BME280;45241;49.768;8.636;2023-07-13T11:39:34;100295.03;;;26.36;43.00
59435;BME280;45241;49.768;8.636;2023-07-13T11:42:03;100296.59;;;26.19;41.77
59435;BME280;45241;49.768;8.636;2023-07-13T11:44:31;100292.03;;;26.33;42.45
59435;BME280;45241;49.768;8.636;2023-07-13T11:46:59;100289.69;;;26.21;41.87
59435;BME280;45241;49.768;8.636;2023-07-13T11:49:30;100288.09;;;25.91;42.11
59435;BME280;45241;49.768;8.636;2023-07-13T11:51:56;100298.00;;;25.63;43.06
59435;BME280;45241;49.768;8.636;2023-07-13T11:56:55;100290.78;;;25.96;44.77
59435;BME280;45241;49.768;8.636;2023-07-13T11:59:23;100296.53;;;26.00;42.55
59435;BME280;45241;49.768;8.636;2023-07-13T12:01:52;100290.06;;;26.09;42.56
59435;BME280;45241;49.768;8.636;2023-07-13T12:04:27;100296.66;;;26.56;41.52
59435;BME280;45241;49.768;8.636;2023-07-13T12:09:28;100289.31;;;26.04;41.66
59435;BME280;45241;49.768;8.636;2023-07-13T12:11:57;100295.94;;;26.03;42.95
59435;BME280;45241;49.768;8.636;2023-07-13T12:14:23;100297.44;;;25.90;41.45
59435;BME280;45241;49.768;8.636;2023-07-13T12:16:50;100298.59;;;26.08;41.93
59435;BME280;45241;49.768;8.636;2023-07-13T12:19:21;100302.47;;;26.12;41.19
59435;BME280;45241;49.768;8.636;2023-07-13T12:21:48;100293.00;;;26.42;42.54
59435;BME280;45241;49.768;8.636;2023-07-13T12:24:15;100298.97;;;26.68;42.09
59435;BME280;45241;49.768;8.636;2023-07-13T12:26:41;100304.91;;;26.75;41.76
59435;BME280;45241;49.768;8.636;2023-07-13T12:29:07;100309.31;;;26.76;41.42
59435;BME280;45241;49.768;8.636;2023-07-13T12:31:40;100302.25;;;26.51;41.12
59435;BME280;45241;49.768;8.636;2023-07-13T12:34:11;100296.78;;;27.08;39.84
59435;BME280;45241;49.768;8.636;2023-07-13T12:36:40;100298.03;;;27.15;39.15
59435;BME280;45241;49.768;8.636;2023-07-13T12:42:28;100311.84;;;26.73;40.51
59435;BME280;45241;49.768;8.636;2023-07-13T12:47:22;100316.28;;;26.68;40.50
59435;BME280;45241;49.768;8.636;2023-07-13T12:49:50;100315.84;;;26.61;41.57
59435;BME280;45241;49.768;8.636;2023-07-13T12:52:22;100307.59;;;26.19;40.59
59435;BME280;45241;49.768;8.636;2023-07-13T12:54:58;100309.75;;;26.64;42.06
59435;BME280;45241;49.768;8.636;2023-07-13T12:57:25;100314.97;;;26.23;41.18
59435;BME280;45241;49.768;8.636;2023-07-13T12:59:55;100308.63;;;25.99;41.80
59435;BME280;45241;49.768;8.636;2023-07-13T13:02:28;100309.66;;;26.03;42.61
59435;BME280;45241;49.768;8.636;2023-07-13T13:04:56;100316.94;;;26.18;42.57
59435;BME280;45241;49.768;8.636;2023-07-13T13:07:22;100314.69;;;25.96;42.86
59435;BME280;45241;49.768;8.636;2023-07-13T13:09:48;100331.00;;;25.87;42.71
59435;BME280;45241;49.768;8.636;2023-07-13T13:12:13;100321.66;;;25.59;43.86
59435;BME280;45241;49.768;8.636;2023-07-13T13:14:40;100325.66;;;25.96;44.13
59435;BME280;45241;49.768;8.636;2023-07-13T13:17:17;100329.94;;;26.07;42.67
59435;BME280;45241;49.768;8.636;2023-07-13T13:19:44;100325.63;;;26.01;42.81
59435;BME280;45241;49.768;8.636;2023-07-13T13:22:10;100327.28;;;25.97;43.57
59435;BME280;45241;49.768;8.636;2023-07-13T13:24:35;100326.13;;;25.79;43.57
59435;BME280;45241;49.768;8.636;2023-07-13T13:27:01;100335.00;;;25.95;43.12
59435;BME280;45241;49.768;8.636;2023-07-13T13:29:27;100321.50;;;26.27;43.17
59435;BME280;45241;49.768;8.636;2023-07-13T13:31:54;100329.81;;;25.93;42.28
59435;BME280;45241;49.768;8.636;2023-07-13T13:34:22;100325.56;;;26.06;42.84
59435;BME280;45241;49.768;8.636;2023-07-13T13:36:51;100322.81;;;26.11;42.81